sensor_id;sensor_type;location;lat;lon;timestamp;P1;durP1;ratioP1;P2;durP2;ratioP2
12703;SDS011;6416;52.182;7.650;2022-08-01T00:00:29;4.45;;;3.15;;
12703;SDS011;6416;52.182;7.650;2022-08-01T00:02:55;3.17;;;2.72;;
12703;SDS011;6416;52.182;7.650;2022-08-01T00:05:21;3.17;;;2.92;;
12703;SDS011;6416;52.182;7.650;2022-08-01T00:07:46;3.40;;;2.95;;
12703;SDS011;6416;52.182;7.650;2022-08-01T00:10:13;3.17;;;2.88;;
12703;SDS011;6416;52.182;7.650;2022-08-01T00:12:40;2.78;;;2.53;;
12703;SDS011;6416;52.182;7.650;2022-08-01T00:15:06;3.58;;;2.67;;
12703;SDS011;6416;52.182;7.650;2022-08-01T00:17:34;2.85;;;2.60;;
12703;SDS011;6416;52.182;7.650;2022-08-01T00:20:00;3.78;;;2.72;;
12703;SDS011;6416;52.182;7.650;2022-08-01T00:22:25;3.00;;;2.70;;
12703;SDS011;6416;52.182;7.650;2022-08-01T00:24:51;3.05;;;2.72;;
12703;SDS011;6416;52.182;7.650;2022-08-01T00:27:16;2.63;;;2.42;;
12703;SDS011;6416;52.182;7.650;2022-08-01T00:29:42;2.63;;;2.42;;
12703;SDS011;6416;52.182;7.650;2022-08-01T00:32:07;3.10;;;2.42;;
12703;SDS011;6416;52.182;7.650;2022-08-01T00:34:33;3.05;;;2.75;;
12703;SDS011;6416;52.182;7.650;2022-08-01T00:36:59;2.65;;;2.45;;
12703;SDS011;6416;52.182;7.650;2022-08-01T00:39:25;2.95;;;2.30;;
12703;SDS011;6416;52.182;7.650;2022-08-01T00:41:50;2.67;;;2.47;;
12703;SDS011;6416;52.182;7.650;2022-08-01T00:44:16;2.47;;;2.28;;
12703;SDS011;6416;52.182;7.650;2022-08-01T00:46:42;2.58;;;2.38;;
12703;SDS011;6416;52.182;7.650;2022-08-01T00:49:07;3.95;;;2.28;;
12703;SDS011;6416;52.182;7.650;2022-08-01T00:51:33;2.08;;;1.98;;
12703;SDS011;6416;52.182;7.650;2022-08-01T00:53:59;2.42;;;2.17;;
12703;SDS011;6416;52.182;7.650;2022-08-01T00:56:25;2.60;;;2.40;;
12703;SDS011;6416;52.182;7.650;2022-08-01T00:58:52;2.75;;;2.50;;
12703;SDS011;6416;52.182;7.650;2022-08-01T01:01:19;2.50;;;2.15;;
12703;SDS011;6416;52.182;7.650;2022-08-01T01:03:45;2.50;;;2.05;;
12703;SDS011;6416;52.182;7.650;2022-08-01T01:09:31;2.28;;;2.08;;
12703;SDS011;6416;52.182;7.650;2022-08-01T01:11:37;2.47;;;2.28;;
12703;SDS011;6416;52.182;7.650;2022-08-01T01:14:10;2.38;;;2.15;;
12703;SDS011;6416;52.182;7.650;2022-08-01T01:16:41;4.03;;;2.25;;
12703;SDS011;6416;52.182;7.650;2022-08-01T01:19:08;2.53;;;2.30;;
12703;SDS011;6416;52.182;7.650;2022-08-01T01:29:37;2.22;;;2.03;;
12703;SDS011;6416;52.182;7.650;2022-08-01T01:32:07;3.05;;;2.25;;
12703;SDS011;6416;52.182;7.650;2022-08-01T01:34:40;2.20;;;2.00;;
12703;SDS011;6416;52.182;7.650;2022-08-01T01:37:09;2.38;;;2.03;;
12703;SDS011;6416;52.182;7.650;2022-08-01T01:39:38;3.15;;;1.88;;
12703;SDS011;6416;52.182;7.650;2022-08-01T01:42:07;2.35;;;2.15;;
12703;SDS011;6416;52.182;7.650;2022-08-01T01:44:33;2.33;;;2.13;;
12703;SDS011;6416;52.182;7.650;2022-08-01T01:46:59;2.70;;;2.20;;
12703;SDS011;6416;52.182;7.650;2022-08-01T01:49:26;2.15;;;1.95;;
12703;SDS011;6416;52.182;7.650;2022-08-01T01:51:53;2.78;;;2.20;;
12703;SDS011;6416;52.182;7.650;2022-08-01T01:54:22;2.55;;;2.30;;
12703;SDS011;6416;52.182;7.650;2022-08-01T01:56:52;4.10;;;1.92;;
12703;SDS011;6416;52.182;7.650;2022-08-01T01:59:20;2.55;;;2.35;;
12703;SDS011;6416;52.182;7.650;2022-08-01T02:01:49;2.70;;;1.90;;
12703;SDS011;6416;52.182;7.650;2022-08-01T02:04:17;2.83;;;2.38;;
12703;SDS011;6416;52.182;7.650;2022-08-01T02:06:45;3.28;;;2.15;;
12703;SDS011;6416;52.182;7.650;2022-08-01T02:09:11;2.38;;;2.17;;
12703;SDS011;6416;52.182;7.650;2022-08-01T02:11:41;4.25;;;2.65;;
12703;SDS011;6416;52.182;7.650;2022-08-01T02:14:08;2.45;;;2.20;;
12703;SDS011;6416;52.182;7.650;2022-08-01T02:16:35;2.53;;;2.22;;
12703;SDS011;6416;52.182;7.650;2022-08-01T02:19:04;2.58;;;1.73;;
12703;SDS011;6416;52.182;7.650;2022-08-01T02:21:31;2.08;;;1.90;;
12703;SDS011;6416;52.182;7.650;2022-08-01T02:24:03;2.10;;;1.95;;
12703;SDS011;6416;52.182;7.650;2022-08-01T02:26:38;3.28;;;2.20;;
12703;SDS011;6416;52.182;7.650;2022-08-01T02:29:07;2.45;;;2.25;;
12703;SDS011;6416;52.182;7.650;2022-08-01T02:31:38;1.85;;;1.75;;
12703;SDS011;6416;52.182;7.650;2022-08-01T02:34:06;2.00;;;1.80;;
12703;SDS011;6416;52.182;7.650;2022-08-01T02:36:35;2.53;;;1.88;;
12703;SDS011;6416;52.182;7.650;2022-08-01T02:39:03;2.03;;;1.83;;
12703;SDS011;6416;52.182;7.650;2022-08-01T02:41:36;2.92;;;1.75;;
12703;SDS011;6416;52.182;7.650;2022-08-01T02:44:06;2.55;;;1.95;;
12703;SDS011;6416;52.182;7.650;2022-08-01T02:46:44;2.13;;;1.92;;
12703;SDS011;6416;52.182;7.650;2022-08-01T02:49:14;1.88;;;1.77;;
12703;SDS011;6416;52.182;7.650;2022-08-01T02:51:43;2.53;;;2.08;;
12703;SDS011;6416;52.182;7.650;2022-08-01T02:54:10;1.95;;;1.80;;
12703;SDS011;6416;52.182;7.650;2022-08-01T02:56:36;2.67;;;1.95;;
12703;SDS011;6416;52.182;7.650;2022-08-01T02:59:07;2.05;;;1.90;;
12703;SDS011;6416;52.182;7.650;2022-08-01T03:01:37;1.95;;;1.75;;
12703;SDS011;6416;52.182;7.650;2022-08-01T03:04:04;1.90;;;1.75;;
12703;SDS011;6416;52.182;7.650;2022-08-01T03:06:32;2.47;;;2.22;;
12703;SDS011;6416;52.182;7.650;2022-08-01T03:08:58;3.83;;;2.05;;
12703;SDS011;6416;52.182;7.650;2022-08-01T03:11:26;2.42;;;1.63;;
12703;SDS011;6416;52.182;7.650;2022-08-01T03:13:53;2.05;;;1.92;;
12703;SDS011;6416;52.182;7.650;2022-08-01T03:16:21;1.98;;;1.85;;
12703;SDS011;6416;52.182;7.650;2022-08-01T03:18:50;2.45;;;1.92;;
12703;SDS011;6416;52.182;7.650;2022-08-01T03:21:19;2.55;;;2.20;;
12703;SDS011;6416;52.182;7.650;2022-08-01T03:23:46;2.42;;;2.22;;
12703;SDS011;6416;52.182;7.650;2022-08-01T03:26:15;2.08;;;1.88;;
12703;SDS011;6416;52.182;7.650;2022-08-01T03:28:41;3.72;;;2.10;;
12703;SDS011;6416;52.182;7.650;2022-08-01T03:31:09;2.60;;;2.22;;
12703;SDS011;6416;52.182;7.650;2022-08-01T03:33:35;2.60;;;2.08;;
12703;SDS011;6416;52.182;7.650;2022-08-01T03:36:01;2.80;;;2.28;;
12703;SDS011;6416;52.182;7.650;2022-08-01T03:38:28;3.50;;;2.47;;
12703;SDS011;6416;52.182;7.650;2022-08-01T03:41:02;2.72;;;2.10;;
12703;SDS011;6416;52.182;7.650;2022-08-01T03:43:38;2.35;;;2.05;;
12703;SDS011;6416;52.182;7.650;2022-08-01T03:46:07;2.20;;;2.00;;
12703;SDS011;6416;52.182;7.650;2022-08-01T03:48:42;2.00;;;1.90;;
12703;SDS011;6416;52.182;7.650;2022-08-01T03:51:11;1.90;;;1.80;;
12703;SDS011;6416;52.182;7.650;2022-08-01T03:53:38;1.90;;;1.75;;
12703;SDS011;6416;52.182;7.650;2022-08-01T03:56:07;2.42;;;1.98;;
12703;SDS011;6416;52.182;7.650;2022-08-01T03:58:33;2.15;;;1.95;;
12703;SDS011;6416;52.182;7.650;2022-08-01T04:01:01;2.35;;;2.15;;
12703;SDS011;6416;52.182;7.650;2022-08-01T04:03:27;2.40;;;2.20;;
12703;SDS011;6416;52.182;7.650;2022-08-01T04:05:53;2.33;;;2.10;;
12703;SDS011;6416;52.182;7.650;2022-08-01T04:08:18;2.45;;;2.25;;
12703;SDS011;6416;52.182;7.650;2022-08-01T04:10:44;2.38;;;2.17;;
12703;SDS011;6416;52.182;7.650;2022-08-01T04:13:09;2.75;;;2.55;;
12703;SDS011;6416;52.182;7.650;2022-08-01T04:15:35;2.20;;;2.00;;
12703;SDS011;6416;52.182;7.650;2022-08-01T04:18:00;2.40;;;2.20;;
12703;SDS011;6416;52.182;7.650;2022-08-01T04:20:26;2.60;;;2.40;;
12703;SDS011;6416;52.182;7.650;2022-08-01T04:22:51;2.40;;;2.20;;
12703;SDS011;6416;52.182;7.650;2022-08-01T04:25:19;2.88;;;2.67;;
12703;SDS011;6416;52.182;7.650;2022-08-01T04:27:50;2.85;;;2.13;;
12703;SDS011;6416;52.182;7.650;2022-08-01T04:30:20;2.63;;;2.42;;
12703;SDS011;6416;52.182;7.650;2022-08-01T04:32:50;2.65;;;2.45;;
12703;SDS011;6416;52.182;7.650;2022-08-01T04:35:19;2.70;;;2.45;;
12703;SDS011;6416;52.182;7.650;2022-08-01T04:37:45;2.47;;;2.28;;
12703;SDS011;6416;52.182;7.650;2022-08-01T04:40:13;2.80;;;2.60;;
12703;SDS011;6416;52.182;7.650;2022-08-01T04:42:40;3.95;;;2.40;;
12703;SDS011;6416;52.182;7.650;2022-08-01T04:45:07;2.65;;;2.42;;
12703;SDS011;6416;52.182;7.650;2022-08-01T04:47:33;2.47;;;2.28;;
12703;SDS011;6416;52.182;7.650;2022-08-01T04:50:03;2.38;;;2.17;;
12703;SDS011;6416;52.182;7.650;2022-08-01T04:52:34;2.47;;;2.30;;
12703;SDS011;6416;52.182;7.650;2022-08-01T04:55:02;3.10;;;2.50;;
12703;SDS011;6416;52.182;7.650;2022-08-01T04:57:29;2.50;;;2.30;;
12703;SDS011;6416;52.182;7.650;2022-08-01T04:59:55;2.63;;;2.42;;
12703;SDS011;6416;52.182;7.650;2022-08-01T05:02:20;2.75;;;2.55;;
12703;SDS011;6416;52.182;7.650;2022-08-01T05:04:46;2.42;;;2.22;;
12703;SDS011;6416;52.182;7.650;2022-08-01T05:07:12;3.33;;;2.67;;
12703;SDS011;6416;52.182;7.650;2022-08-01T05:09:38;3.20;;;2.53;;
12703;SDS011;6416;52.182;7.650;2022-08-01T05:12:05;3.45;;;3.15;;
12703;SDS011;6416;52.182;7.650;2022-08-01T05:14:31;3.97;;;2.70;;
12703;SDS011;6416;52.182;7.650;2022-08-01T05:16:58;2.72;;;2.53;;
12703;SDS011;6416;52.182;7.650;2022-08-01T05:19:24;2.72;;;2.53;;
12703;SDS011;6416;52.182;7.650;2022-08-01T05:21:50;2.70;;;2.50;;
12703;SDS011;6416;52.182;7.650;2022-08-01T05:24:15;2.80;;;2.53;;
12703;SDS011;6416;52.182;7.650;2022-08-01T05:26:41;2.97;;;2.78;;
12703;SDS011;6416;52.182;7.650;2022-08-01T05:29:06;2.95;;;2.58;;
12703;SDS011;6416;52.182;7.650;2022-08-01T05:31:32;3.30;;;2.75;;
12703;SDS011;6416;52.182;7.650;2022-08-01T05:33:58;3.35;;;3.08;;
12703;SDS011;6416;52.182;7.650;2022-08-01T05:36:23;2.88;;;2.67;;
12703;SDS011;6416;52.182;7.650;2022-08-01T05:38:49;2.83;;;2.63;;
12703;SDS011;6416;52.182;7.650;2022-08-01T05:41:14;2.95;;;2.75;;
12703;SDS011;6416;52.182;7.650;2022-08-01T05:43:40;2.95;;;2.75;;
12703;SDS011;6416;52.182;7.650;2022-08-01T05:46:05;2.83;;;2.63;;
12703;SDS011;6416;52.182;7.650;2022-08-01T05:48:31;2.50;;;2.30;;
12703;SDS011;6416;52.182;7.650;2022-08-01T05:50:56;2.95;;;2.70;;
12703;SDS011;6416;52.182;7.650;2022-08-01T05:53:22;2.83;;;2.63;;
12703;SDS011;6416;52.182;7.650;2022-08-01T05:55:48;2.70;;;2.50;;
12703;SDS011;6416;52.182;7.650;2022-08-01T05:58:13;3.15;;;2.88;;
12703;SDS011;6416;52.182;7.650;2022-08-01T06:00:39;2.50;;;2.30;;
12703;SDS011;6416;52.182;7.650;2022-08-01T06:03:04;4.38;;;1.98;;
12703;SDS011;6416;52.182;7.650;2022-08-01T06:05:30;2.05;;;1.95;;
12703;SDS011;6416;52.182;7.650;2022-08-01T06:07:55;3.70;;;2.00;;
12703;SDS011;6416;52.182;7.650;2022-08-01T06:10:21;2.40;;;2.05;;
12703;SDS011;6416;52.182;7.650;2022-08-01T06:12:46;1.90;;;1.80;;
12703;SDS011;6416;52.182;7.650;2022-08-01T06:15:12;2.25;;;2.15;;
12703;SDS011;6416;52.182;7.650;2022-08-01T06:17:37;2.17;;;2.03;;
12703;SDS011;6416;52.182;7.650;2022-08-01T06:20:03;2.58;;;2.33;;
12703;SDS011;6416;52.182;7.650;2022-08-01T06:22:29;1.90;;;1.80;;
12703;SDS011;6416;52.182;7.650;2022-08-01T06:24:55;2.30;;;2.10;;
12703;SDS011;6416;52.182;7.650;2022-08-01T06:27:20;2.20;;;2.00;;
12703;SDS011;6416;52.182;7.650;2022-08-01T06:29:46;2.53;;;2.20;;
12703;SDS011;6416;52.182;7.650;2022-08-01T06:32:11;2.40;;;2.20;;
12703;SDS011;6416;52.182;7.650;2022-08-01T06:34:37;2.60;;;2.40;;
12703;SDS011;6416;52.182;7.650;2022-08-01T06:37:02;2.15;;;2.00;;
12703;SDS011;6416;52.182;7.650;2022-08-01T06:39:28;2.08;;;1.98;;
12703;SDS011;6416;52.182;7.650;2022-08-01T06:41:53;2.90;;;2.60;;
12703;SDS011;6416;52.182;7.650;2022-08-01T06:44:19;2.00;;;1.90;;
12703;SDS011;6416;52.182;7.650;2022-08-01T06:46:44;2.55;;;2.35;;
12703;SDS011;6416;52.182;7.650;2022-08-01T06:49:10;2.50;;;2.30;;
12703;SDS011;6416;52.182;7.650;2022-08-01T06:51:35;4.15;;;2.55;;
12703;SDS011;6416;52.182;7.650;2022-08-01T06:54:01;2.30;;;2.10;;
12703;SDS011;6416;52.182;7.650;2022-08-01T06:56:26;2.80;;;2.30;;
12703;SDS011;6416;52.182;7.650;2022-08-01T06:58:52;2.35;;;2.15;;
12703;SDS011;6416;52.182;7.650;2022-08-01T07:01:17;2.08;;;1.98;;
12703;SDS011;6416;52.182;7.650;2022-08-01T07:03:43;2.58;;;2.38;;
12703;SDS011;6416;52.182;7.650;2022-08-01T07:06:08;2.45;;;2.25;;
12703;SDS011;6416;52.182;7.650;2022-08-01T07:08:34;3.00;;;2.20;;
12703;SDS011;6416;52.182;7.650;2022-08-01T07:10:59;2.00;;;1.85;;
12703;SDS011;6416;52.182;7.650;2022-08-01T07:13:26;2.17;;;2.08;;
12703;SDS011;6416;52.182;7.650;2022-08-01T07:15:52;2.53;;;2.33;;
12703;SDS011;6416;52.182;7.650;2022-08-01T07:18:17;2.38;;;2.17;;
12703;SDS011;6416;52.182;7.650;2022-08-01T07:20:42;2.33;;;2.10;;
12703;SDS011;6416;52.182;7.650;2022-08-01T07:23:08;2.25;;;2.05;;
12703;SDS011;6416;52.182;7.650;2022-08-01T07:25:34;2.72;;;2.53;;
12703;SDS011;6416;52.182;7.650;2022-08-01T07:27:59;2.33;;;2.13;;
12703;SDS011;6416;52.182;7.650;2022-08-01T07:30:25;3.17;;;2.13;;
12703;SDS011;6416;52.182;7.650;2022-08-01T07:32:50;1.73;;;1.63;;
12703;SDS011;6416;52.182;7.650;2022-08-01T07:35:16;1.80;;;1.70;;
12703;SDS011;6416;52.182;7.650;2022-08-01T07:37:41;2.08;;;1.85;;
12703;SDS011;6416;52.182;7.650;2022-08-01T07:40:07;1.55;;;1.45;;
12703;SDS011;6416;52.182;7.650;2022-08-01T07:42:33;1.88;;;1.50;;
12703;SDS011;6416;52.182;7.650;2022-08-01T07:44:58;1.40;;;1.30;;
12703;SDS011;6416;52.182;7.650;2022-08-01T07:47:24;1.25;;;1.17;;
12703;SDS011;6416;52.182;7.650;2022-08-01T07:49:50;1.27;;;1.17;;
12703;SDS011;6416;52.182;7.650;2022-08-01T07:52:15;1.15;;;1.08;;
12703;SDS011;6416;52.182;7.650;2022-08-01T07:54:41;1.42;;;1.33;;
12703;SDS011;6416;52.182;7.650;2022-08-01T07:57:06;1.33;;;1.23;;
12703;SDS011;6416;52.182;7.650;2022-08-01T07:59:32;1.40;;;1.27;;
12703;SDS011;6416;52.182;7.650;2022-08-01T08:01:58;3.80;;;1.02;;
12703;SDS011;6416;52.182;7.650;2022-08-01T08:04:24;1.67;;;1.20;;
12703;SDS011;6416;52.182;7.650;2022-08-01T08:06:50;1.20;;;1.10;;
12703;SDS011;6416;52.182;7.650;2022-08-01T08:09:16;1.30;;;1.10;;
12703;SDS011;6416;52.182;7.650;2022-08-01T08:11:42;2.17;;;0.93;;
12703;SDS011;6416;52.182;7.650;2022-08-01T08:14:09;1.02;;;0.90;;
12703;SDS011;6416;52.182;7.650;2022-08-01T08:16:34;1.10;;;1.00;;
12703;SDS011;6416;52.182;7.650;2022-08-01T08:19:00;1.85;;;0.90;;
12703;SDS011;6416;52.182;7.650;2022-08-01T08:21:25;0.95;;;0.80;;
12703;SDS011;6416;52.182;7.650;2022-08-01T08:23:51;1.93;;;1.20;;
12703;SDS011;6416;52.182;7.650;2022-08-01T08:26:16;1.30;;;1.00;;
12703;SDS011;6416;52.182;7.650;2022-08-01T08:28:42;1.73;;;0.80;;
12703;SDS011;6416;52.182;7.650;2022-08-01T08:31:07;1.63;;;0.88;;
12703;SDS011;6416;52.182;7.650;2022-08-01T08:33:33;0.75;;;0.70;;
12703;SDS011;6416;52.182;7.650;2022-08-01T08:35:58;2.00;;;0.77;;
12703;SDS011;6416;52.182;7.650;2022-08-01T08:38:24;1.42;;;1.02;;
12703;SDS011;6416;52.182;7.650;2022-08-01T08:40:49;0.70;;;0.70;;
12703;SDS011;6416;52.182;7.650;2022-08-01T08:43:15;2.35;;;0.70;;
12703;SDS011;6416;52.182;7.650;2022-08-01T08:45:41;0.63;;;0.63;;
12703;SDS011;6416;52.182;7.650;2022-08-01T08:48:08;1.00;;;0.70;;
12703;SDS011;6416;52.182;7.650;2022-08-01T08:50:33;0.80;;;0.80;;
12703;SDS011;6416;52.182;7.650;2022-08-01T08:53:01;0.98;;;0.60;;
12703;SDS011;6416;52.182;7.650;2022-08-01T08:55:27;1.13;;;0.90;;
12703;SDS011;6416;52.182;7.650;2022-08-01T08:57:53;0.70;;;0.70;;
12703;SDS011;6416;52.182;7.650;2022-08-01T09:00:19;1.58;;;0.73;;
12703;SDS011;6416;52.182;7.650;2022-08-01T09:02:46;0.70;;;0.65;;
12703;SDS011;6416;52.182;7.650;2022-08-01T09:05:13;1.75;;;0.80;;
12703;SDS011;6416;52.182;7.650;2022-08-01T09:07:38;2.15;;;0.70;;
12703;SDS011;6416;52.182;7.650;2022-08-01T09:10:04;0.85;;;0.82;;
12703;SDS011;6416;52.182;7.650;2022-08-01T09:12:31;1.08;;;0.75;;
12703;SDS011;6416;52.182;7.650;2022-08-01T09:14:56;2.10;;;0.80;;
12703;SDS011;6416;52.182;7.650;2022-08-01T09:17:23;1.13;;;0.70;;
12703;SDS011;6416;52.182;7.650;2022-08-01T09:19:50;1.63;;;0.70;;
12703;SDS011;6416;52.182;7.650;2022-08-01T09:22:18;1.00;;;0.93;;
12703;SDS011;6416;52.182;7.650;2022-08-01T09:24:58;1.35;;;0.90;;
12703;SDS011;6416;52.182;7.650;2022-08-01T09:27:29;1.55;;;0.80;;
12703;SDS011;6416;52.182;7.650;2022-08-01T09:29:55;1.33;;;1.23;;
12703;SDS011;6416;52.182;7.650;2022-08-01T09:35:30;1.40;;;1.00;;
12703;SDS011;6416;52.182;7.650;2022-08-01T09:40:44;0.85;;;0.85;;
12703;SDS011;6416;52.182;7.650;2022-08-01T09:43:13;1.10;;;1.00;;
12703;SDS011;6416;52.182;7.650;2022-08-01T09:45:38;1.02;;;0.77;;
12703;SDS011;6416;52.182;7.650;2022-08-01T09:48:08;2.55;;;1.20;;
12703;SDS011;6416;52.182;7.650;2022-08-01T09:50:40;1.17;;;1.02;;
12703;SDS011;6416;52.182;7.650;2022-08-01T09:53:10;1.02;;;0.90;;
12703;SDS011;6416;52.182;7.650;2022-08-01T09:55:37;2.10;;;0.90;;
12703;SDS011;6416;52.182;7.650;2022-08-01T09:58:03;1.58;;;1.13;;
12703;SDS011;6416;52.182;7.650;2022-08-01T10:00:29;1.58;;;1.10;;
12703;SDS011;6416;52.182;7.650;2022-08-01T10:02:54;1.10;;;1.02;;
12703;SDS011;6416;52.182;7.650;2022-08-01T10:05:29;2.00;;;1.10;;
12703;SDS011;6416;52.182;7.650;2022-08-01T10:07:59;2.30;;;1.27;;
12703;SDS011;6416;52.182;7.650;2022-08-01T10:10:29;1.08;;;0.90;;
12703;SDS011;6416;52.182;7.650;2022-08-01T10:12:56;2.10;;;1.20;;
12703;SDS011;6416;52.182;7.650;2022-08-01T10:15:24;1.73;;;1.17;;
12703;SDS011;6416;52.182;7.650;2022-08-01T10:17:55;3.05;;;1.05;;
12703;SDS011;6416;52.182;7.650;2022-08-01T10:20:23;1.10;;;0.98;;
12703;SDS011;6416;52.182;7.650;2022-08-01T10:22:52;1.35;;;1.13;;
12703;SDS011;6416;52.182;7.650;2022-08-01T10:25:19;1.10;;;1.00;;
12703;SDS011;6416;52.182;7.650;2022-08-01T10:27:45;2.58;;;1.40;;
12703;SDS011;6416;52.182;7.650;2022-08-01T10:30:17;1.30;;;1.13;;
12703;SDS011;6416;52.182;7.650;2022-08-01T10:32:43;1.15;;;0.93;;
12703;SDS011;6416;52.182;7.650;2022-08-01T10:35:11;2.55;;;1.20;;
12703;SDS011;6416;52.182;7.650;2022-08-01T10:37:37;1.15;;;0.80;;
12703;SDS011;6416;52.182;7.650;2022-08-01T10:40:03;0.95;;;0.80;;
12703;SDS011;6416;52.182;7.650;2022-08-01T10:42:29;1.35;;;0.85;;
12703;SDS011;6416;52.182;7.650;2022-08-01T10:44:54;2.10;;;1.00;;
12703;SDS011;6416;52.182;7.650;2022-08-01T10:47:23;1.55;;;1.02;;
12703;SDS011;6416;52.182;7.650;2022-08-01T10:49:58;1.58;;;0.98;;
12703;SDS011;6416;52.182;7.650;2022-08-01T10:52:29;2.08;;;1.00;;
12703;SDS011;6416;52.182;7.650;2022-08-01T10:55:05;1.20;;;1.10;;
12703;SDS011;6416;52.182;7.650;2022-08-01T10:57:45;1.30;;;0.80;;
12703;SDS011;6416;52.182;7.650;2022-08-01T11:00:18;1.70;;;1.10;;
12703;SDS011;6416;52.182;7.650;2022-08-01T11:02:57;2.53;;;1.00;;
12703;SDS011;6416;52.182;7.650;2022-08-01T11:05:24;1.33;;;1.20;;
12703;SDS011;6416;52.182;7.650;2022-08-01T11:07:54;1.02;;;0.90;;
12703;SDS011;6416;52.182;7.650;2022-08-01T11:13:03;1.80;;;0.90;;
12703;SDS011;6416;52.182;7.650;2022-08-01T11:15:29;1.92;;;1.20;;
12703;SDS011;6416;52.182;7.650;2022-08-01T11:17:55;1.88;;;1.00;;
12703;SDS011;6416;52.182;7.650;2022-08-01T11:20:22;3.45;;;1.10;;
12703;SDS011;6416;52.182;7.650;2022-08-01T11:25:26;0.90;;;0.90;;
12703;SDS011;6416;52.182;7.650;2022-08-01T11:30:41;1.10;;;0.80;;
12703;SDS011;6416;52.182;7.650;2022-08-01T11:33:18;1.92;;;0.77;;
12703;SDS011;6416;52.182;7.650;2022-08-01T11:38:40;2.95;;;1.30;;
12703;SDS011;6416;52.182;7.650;2022-08-01T11:49:29;2.28;;;0.98;;
12703;SDS011;6416;52.182;7.650;2022-08-01T11:51:59;0.77;;;0.70;;
12703;SDS011;6416;52.182;7.650;2022-08-01T11:54:44;1.27;;;0.80;;
12703;SDS011;6416;52.182;7.650;2022-08-01T11:57:22;2.00;;;0.73;;
12703;SDS011;6416;52.182;7.650;2022-08-01T11:59:52;1.60;;;1.00;;
12703;SDS011;6416;52.182;7.650;2022-08-01T12:04:48;2.33;;;0.93;;
12703;SDS011;6416;52.182;7.650;2022-08-01T12:07:15;2.97;;;1.10;;
12703;SDS011;6416;52.182;7.650;2022-08-01T12:09:41;2.47;;;0.98;;
12703;SDS011;6416;52.182;7.650;2022-08-01T12:12:06;2.15;;;1.00;;
12703;SDS011;6416;52.182;7.650;2022-08-01T12:14:32;1.95;;;1.10;;
12703;SDS011;6416;52.182;7.650;2022-08-01T12:16:58;1.92;;;0.82;;
12703;SDS011;6416;52.182;7.650;2022-08-01T12:19:23;1.40;;;1.00;;
12703;SDS011;6416;52.182;7.650;2022-08-01T12:22:09;2.40;;;0.98;;
12703;SDS011;6416;52.182;7.650;2022-08-01T12:24:37;1.60;;;0.82;;
12703;SDS011;6416;52.182;7.650;2022-08-01T12:27:04;2.78;;;1.23;;
12703;SDS011;6416;52.182;7.650;2022-08-01T12:29:31;2.88;;;1.00;;
12703;SDS011;6416;52.182;7.650;2022-08-01T12:32:24;1.92;;;1.20;;
12703;SDS011;6416;52.182;7.650;2022-08-01T12:34:54;3.15;;;0.95;;
12703;SDS011;6416;52.182;7.650;2022-08-01T12:37:20;1.95;;;1.05;;
12703;SDS011;6416;52.182;7.650;2022-08-01T12:39:46;3.00;;;1.23;;
12703;SDS011;6416;52.182;7.650;2022-08-01T12:42:12;3.28;;;1.13;;
12703;SDS011;6416;52.182;7.650;2022-08-01T12:44:39;2.88;;;0.95;;
12703;SDS011;6416;52.182;7.650;2022-08-01T12:47:06;3.60;;;1.20;;
12703;SDS011;6416;52.182;7.650;2022-08-01T12:49:33;2.55;;;1.02;;
12703;SDS011;6416;52.182;7.650;2022-08-01T12:52:01;3.00;;;1.13;;
12703;SDS011;6416;52.182;7.650;2022-08-01T12:54:27;2.80;;;1.20;;
12703;SDS011;6416;52.182;7.650;2022-08-01T12:56:52;4.32;;;1.10;;
12703;SDS011;6416;52.182;7.650;2022-08-01T12:59:18;3.30;;;1.00;;
12703;SDS011;6416;52.182;7.650;2022-08-01T13:01:45;3.13;;;1.23;;
12703;SDS011;6416;52.182;7.650;2022-08-01T13:04:10;3.13;;;1.10;;
12703;SDS011;6416;52.182;7.650;2022-08-01T13:06:36;2.08;;;1.10;;
12703;SDS011;6416;52.182;7.650;2022-08-01T13:09:08;3.05;;;1.20;;
12703;SDS011;6416;52.182;7.650;2022-08-01T13:11:34;3.90;;;1.92;;
12703;SDS011;6416;52.182;7.650;2022-08-01T13:13:59;2.83;;;1.02;;
12703;SDS011;6416;52.182;7.650;2022-08-01T13:16:25;3.22;;;1.27;;
12703;SDS011;6416;52.182;7.650;2022-08-01T13:18:55;2.95;;;1.25;;
12703;SDS011;6416;52.182;7.650;2022-08-01T13:21:22;2.28;;;1.05;;
12703;SDS011;6416;52.182;7.650;2022-08-01T13:26:45;6.80;;;1.42;;
12703;SDS011;6416;52.182;7.650;2022-08-01T13:29:13;3.67;;;1.20;;
12703;SDS011;6416;52.182;7.650;2022-08-01T13:31:40;2.13;;;1.00;;
12703;SDS011;6416;52.182;7.650;2022-08-01T13:34:07;2.13;;;1.10;;
12703;SDS011;6416;52.182;7.650;2022-08-01T13:36:33;2.47;;;1.08;;
12703;SDS011;6416;52.182;7.650;2022-08-01T13:38:59;3.00;;;1.50;;
12703;SDS011;6416;52.182;7.650;2022-08-01T13:41:25;2.25;;;1.00;;
12703;SDS011;6416;52.182;7.650;2022-08-01T13:43:51;2.30;;;1.15;;
12703;SDS011;6416;52.182;7.650;2022-08-01T13:46:17;2.45;;;1.02;;
12703;SDS011;6416;52.182;7.650;2022-08-01T13:48:42;3.80;;;1.20;;
12703;SDS011;6416;52.182;7.650;2022-08-01T13:51:08;2.33;;;1.30;;
12703;SDS011;6416;52.182;7.650;2022-08-01T13:53:33;2.38;;;1.10;;
12703;SDS011;6416;52.182;7.650;2022-08-01T13:55:59;1.85;;;1.00;;
12703;SDS011;6416;52.182;7.650;2022-08-01T13:58:25;2.80;;;0.90;;
12703;SDS011;6416;52.182;7.650;2022-08-01T14:00:51;1.35;;;0.85;;
12703;SDS011;6416;52.182;7.650;2022-08-01T14:03:16;1.77;;;0.95;;
12703;SDS011;6416;52.182;7.650;2022-08-01T14:05:42;2.20;;;1.00;;
12703;SDS011;6416;52.182;7.650;2022-08-01T14:08:09;3.35;;;1.20;;
12703;SDS011;6416;52.182;7.650;2022-08-01T14:10:34;2.83;;;1.20;;
12703;SDS011;6416;52.182;7.650;2022-08-01T14:13:00;2.35;;;1.02;;
12703;SDS011;6416;52.182;7.650;2022-08-01T14:15:25;0.88;;;0.70;;
12703;SDS011;6416;52.182;7.650;2022-08-01T14:17:51;4.75;;;1.23;;
12703;SDS011;6416;52.182;7.650;2022-08-01T14:20:17;3.03;;;0.85;;
12703;SDS011;6416;52.182;7.650;2022-08-01T14:22:42;2.60;;;1.05;;
12703;SDS011;6416;52.182;7.650;2022-08-01T14:25:08;3.97;;;1.15;;
12703;SDS011;6416;52.182;7.650;2022-08-01T14:27:33;3.15;;;1.38;;
12703;SDS011;6416;52.182;7.650;2022-08-01T14:29:59;2.78;;;1.00;;
12703;SDS011;6416;52.182;7.650;2022-08-01T14:32:24;1.85;;;0.93;;
12703;SDS011;6416;52.182;7.650;2022-08-01T14:34:50;3.95;;;1.40;;
12703;SDS011;6416;52.182;7.650;2022-08-01T14:37:15;2.55;;;0.90;;
12703;SDS011;6416;52.182;7.650;2022-08-01T14:39:41;1.30;;;0.80;;
12703;SDS011;6416;52.182;7.650;2022-08-01T14:42:06;1.60;;;0.93;;
12703;SDS011;6416;52.182;7.650;2022-08-01T14:44:32;1.88;;;1.10;;
12703;SDS011;6416;52.182;7.650;2022-08-01T14:46:57;3.38;;;1.30;;
12703;SDS011;6416;52.182;7.650;2022-08-01T14:49:23;2.78;;;0.82;;
12703;SDS011;6416;52.182;7.650;2022-08-01T14:51:48;3.25;;;0.90;;
12703;SDS011;6416;52.182;7.650;2022-08-01T14:54:13;1.50;;;1.17;;
12703;SDS011;6416;52.182;7.650;2022-08-01T14:56:39;3.25;;;0.95;;
12703;SDS011;6416;52.182;7.650;2022-08-01T14:59:04;2.53;;;1.30;;
12703;SDS011;6416;52.182;7.650;2022-08-01T15:01:30;2.63;;;0.80;;
12703;SDS011;6416;52.182;7.650;2022-08-01T15:03:55;1.95;;;0.82;;
12703;SDS011;6416;52.182;7.650;2022-08-01T15:06:21;1.35;;;0.90;;
12703;SDS011;6416;52.182;7.650;2022-08-01T15:08:50;2.83;;;1.20;;
12703;SDS011;6416;52.182;7.650;2022-08-01T15:11:15;2.08;;;1.20;;
12703;SDS011;6416;52.182;7.650;2022-08-01T15:13:40;2.28;;;0.93;;
12703;SDS011;6416;52.182;7.650;2022-08-01T15:16:06;1.65;;;1.00;;
12703;SDS011;6416;52.182;7.650;2022-08-01T15:18:31;4.53;;;1.90;;
12703;SDS011;6416;52.182;7.650;2022-08-01T15:20:57;1.80;;;0.85;;
12703;SDS011;6416;52.182;7.650;2022-08-01T15:23:22;2.53;;;1.05;;
12703;SDS011;6416;52.182;7.650;2022-08-01T15:25:48;2.75;;;0.80;;
12703;SDS011;6416;52.182;7.650;2022-08-01T15:28:14;1.17;;;0.77;;
12703;SDS011;6416;52.182;7.650;2022-08-01T15:30:40;1.70;;;0.80;;
12703;SDS011;6416;52.182;7.650;2022-08-01T15:33:06;2.00;;;0.98;;
12703;SDS011;6416;52.182;7.650;2022-08-01T15:35:31;2.53;;;0.90;;
12703;SDS011;6416;52.182;7.650;2022-08-01T15:37:57;2.40;;;1.05;;
12703;SDS011;6416;52.182;7.650;2022-08-01T15:40:23;4.95;;;1.00;;